Eurocargo Valencia — IBGZ — position and weather

sailwx.info

Track history (hours):
 
Tides and Currents Weather Stations Pressure Air Temp Water Temp Dewpoint Dewpoint Depression Visibility Wind Speed Wind Dir Waves Ship Positions

Eurocargo Valencia

Last reported at 2015-Mar-25 08:21 UTC. Time now 2015-Mar-27 10:15 UTC.
Position N 32°50' E 033°23'.

Length 196 m; draft 6.5 m.

Type: Cargo ship. MMSI: 247579000.

Date/timePositionNaut miles runAvg speedWind from/ knotsBaromVisibWave heightAir tempDewpointWater temp
2015-Mar-25 08:21N 32°50' E 033°23'1414.7
2015-Mar-25 07:24N 32°55' E 033°38'2014.8
2015-Mar-25 06:03N 33°02' E 034°01'814.7
2015-Mar-25 05:32N 33°01' E 034°09'1414.4
2015-Mar-25 04:33N 32°58' E 034°26'1414.0
2015-Mar-25 03:33N 32°55' E 034°42'10 0.9
2015-Mar-24 16:05N 32°53' E 034°54'914.2
2015-Mar-24 15:27N 32°55' E 034°43'1314.4
2015-Mar-24 14:34N 32°57' E 034°28'1514.1
2015-Mar-24 13:30N 32°59' E 034°11'1313.8
2015-Mar-24 12:31N 33°03' E 033°55'2813.9
2015-Mar-24 10:32N 33°12' E 033°24'1714.0
2015-Mar-24 09:19N 33°18' E 033°05'2614.3
2015-Mar-24 07:31N 33°27' E 032°36'37914.0
2015-Mar-23 04:30N 35°57' E 025°32'1313.2
2015-Mar-23 03:32N 36°03' E 025°19'1313.7
2015-Mar-23 02:33N 36°11' E 025°05'1414.2
2015-Mar-23 01:33N 36°18' E 024°50'8913.7
2015-Mar-22 19:03N 37°32' E 023°48'714.4
2015-Mar-22 18:33N 37°39' E 023°43'1414.1
2015-Mar-22 17:33N 37°52' E 023°37'6 5.5
2015-Mar-22 16:26N 37°58' E 023°36'0 0.0
2015-Mar-22 15:32N 37°58' E 023°36'0 0.0
2015-Mar-22 14:32N 37°58' E 023°36'0 0.0
2015-Mar-22 13:32N 37°58' E 023°36'0 0.0
2015-Mar-22 12:32N 37°58' E 023°36'0 0.2
2015-Mar-22 11:33N 37°57' E 023°36'1111.1
2015-Mar-22 10:33N 37°47' E 023°41'1514.9
2015-Mar-22 09:33N 37°32' E 023°45'  
Track history (hours):
 
Tides and Currents Weather Stations Pressure Air Temp Water Temp Dewpoint Dewpoint Depression Visibility Wind Speed Wind Dir Waves Ship Positions

Eurocargo Valencia

Last reported at 2015-Mar-25 08:21 UTC. Time now 2015-Mar-27 10:15 UTC.
Position N 32°50' E 033°23'.

Length 196 m; draft 6.5 m.

Type: Cargo ship. MMSI: 247579000.

Date/timePositionNaut miles runAvg speedWind from/ knotsBaromVisibWave heightAir tempDewpointWater temp
2015-Mar-25 08:21N 32°50' E 033°23'1414.7
2015-Mar-25 07:24N 32°55' E 033°38'2014.8
2015-Mar-25 06:03N 33°02' E 034°01'814.7
2015-Mar-25 05:32N 33°01' E 034°09'1414.4
2015-Mar-25 04:33N 32°58' E 034°26'1414.0
2015-Mar-25 03:33N 32°55' E 034°42'10 0.9
2015-Mar-24 16:05N 32°53' E 034°54'914.2
2015-Mar-24 15:27N 32°55' E 034°43'1314.4
2015-Mar-24 14:34N 32°57' E 034°28'1514.1
2015-Mar-24 13:30N 32°59' E 034°11'1313.8
2015-Mar-24 12:31N 33°03' E 033°55'2813.9
2015-Mar-24 10:32N 33°12' E 033°24'1714.0
2015-Mar-24 09:19N 33°18' E 033°05'2614.3
2015-Mar-24 07:31N 33°27' E 032°36'37914.0
2015-Mar-23 04:30N 35°57' E 025°32'1313.2
2015-Mar-23 03:32N 36°03' E 025°19'1313.7
2015-Mar-23 02:33N 36°11' E 025°05'1414.2
2015-Mar-23 01:33N 36°18' E 024°50'8913.7
2015-Mar-22 19:03N 37°32' E 023°48'714.4
2015-Mar-22 18:33N 37°39' E 023°43'1414.1
2015-Mar-22 17:33N 37°52' E 023°37'6 5.5
2015-Mar-22 16:26N 37°58' E 023°36'0 0.0
2015-Mar-22 15:32N 37°58' E 023°36'0 0.0
2015-Mar-22 14:32N 37°58' E 023°36'0 0.0
2015-Mar-22 13:32N 37°58' E 023°36'0 0.0
2015-Mar-22 12:32N 37°58' E 023°36'0 0.2
2015-Mar-22 11:33N 37°57' E 023°36'1111.1
2015-Mar-22 10:33N 37°47' E 023°41'1514.9
2015-Mar-22 09:33N 37°32' E 023°45'  

Dump ship's entire track history